createdAt,value
2022-09-22T00:01:41.378Z,16.28
2022-09-22T00:04:13.811Z,16.28
2022-09-22T00:06:44.088Z,16.27
2022-09-22T00:09:13.573Z,16.25
2022-09-22T00:11:42.573Z,16.27
2022-09-22T00:14:10.529Z,16.26
2022-09-22T00:16:39.405Z,16.24
2022-09-22T00:19:07.753Z,16.23
2022-09-22T00:21:34.977Z,16.23
2022-09-22T00:24:03.659Z,16.20
2022-09-22T00:26:31.257Z,16.20
2022-09-22T00:28:58.152Z,16.19
2022-09-22T00:31:25.966Z,16.19
2022-09-22T00:33:54.422Z,16.19
2022-09-22T00:36:24.203Z,16.17
2022-09-22T00:38:51.623Z,16.15
2022-09-22T00:41:27.786Z,16.15
2022-09-22T00:44:15.874Z,16.16
2022-09-22T00:46:46.009Z,16.14
2022-09-22T00:49:15.565Z,16.16
2022-09-22T00:51:44.684Z,16.12
2022-09-22T00:54:18.222Z,16.10
2022-09-22T00:56:53.379Z,16.13
2022-09-22T00:59:24.902Z,16.11
2022-09-22T01:01:52.056Z,16.08
2022-09-22T01:04:18.871Z,16.09
2022-09-22T01:06:46.445Z,16.08
2022-09-22T01:09:14.507Z,16.05
2022-09-22T01:11:42.375Z,16.05
2022-09-22T01:14:27.717Z,16.04
2022-09-22T01:17:06.088Z,16.07
2022-09-22T01:19:51.286Z,16.05
2022-09-22T01:22:39.580Z,16.03
2022-09-22T01:25:15.211Z,16.05
2022-09-22T01:28:02.805Z,16.04
2022-09-22T01:30:53.710Z,16.02
2022-09-22T01:33:50.779Z,16.01
2022-09-22T01:36:24.759Z,15.98
2022-09-22T01:39:09.530Z,16.00
2022-09-22T01:42:05.978Z,16.05
2022-09-22T01:44:43.625Z,16.00
2022-09-22T01:47:24.504Z,15.95
2022-09-22T01:49:56.990Z,16.03
2022-09-22T01:52:28.767Z,15.98
2022-09-22T01:55:04.127Z,15.99
2022-09-22T01:58:05.629Z,15.91
2022-09-22T02:00:32.964Z,15.92
2022-09-22T02:03:11.389Z,15.95
2022-09-22T02:05:44.776Z,15.90
2022-09-22T02:08:37.924Z,15.95
2022-09-22T02:11:11.686Z,15.92
2022-09-22T02:13:38.626Z,15.91
2022-09-22T02:16:08.056Z,15.94
2022-09-22T02:18:50.189Z,15.93
2022-09-22T02:21:18.305Z,15.90
2022-09-22T02:23:46.720Z,15.85
2022-09-22T02:26:18.142Z,15.87
2022-09-22T02:28:45.485Z,15.90
2022-09-22T02:31:21.164Z,15.84
2022-09-22T02:33:49.751Z,15.91
2022-09-22T02:36:24.706Z,15.87
2022-09-22T02:39:18.916Z,15.88
2022-09-22T02:42:17.506Z,15.83
2022-09-22T02:44:47.833Z,15.87
2022-09-22T02:47:32.362Z,15.83
2022-09-22T02:50:00.758Z,15.80
2022-09-22T02:52:27.389Z,15.77
2022-09-22T02:54:54.529Z,15.83
2022-09-22T02:57:21.258Z,15.84
2022-09-22T02:59:48.003Z,15.80
2022-09-22T03:02:14.705Z,15.75
2022-09-22T03:04:41.558Z,15.79
2022-09-22T03:07:08.169Z,15.76
2022-09-22T03:09:34.773Z,15.80
2022-09-22T03:12:01.747Z,15.79
2022-09-22T03:14:28.346Z,15.83
2022-09-22T03:16:55.082Z,15.80
2022-09-22T03:19:21.666Z,15.77
2022-09-22T03:21:48.331Z,15.79
2022-09-22T03:24:14.977Z,15.75
2022-09-22T03:26:41.647Z,15.77
2022-09-22T03:29:08.606Z,15.79
2022-09-22T03:31:35.591Z,15.75
2022-09-22T03:34:02.346Z,15.71
2022-09-22T03:36:28.893Z,15.76
2022-09-22T03:38:55.602Z,15.77
2022-09-22T03:41:22.230Z,15.72
2022-09-22T03:43:48.924Z,15.78
2022-09-22T03:46:15.987Z,15.74
2022-09-22T03:48:45.166Z,15.71
2022-09-22T03:51:12.135Z,15.66
2022-09-22T03:53:39.214Z,15.70
2022-09-22T03:56:16.528Z,15.64
2022-09-22T03:58:43.763Z,15.62
2022-09-22T04:01:11.451Z,15.65
2022-09-22T04:03:39.063Z,15.67
2022-09-22T04:06:05.976Z,15.65
2022-09-22T04:08:32.954Z,15.75
2022-09-22T04:11:01.006Z,15.73
2022-09-22T04:13:27.726Z,15.67
2022-09-22T04:15:54.303Z,15.68
2022-09-22T04:18:22.039Z,15.64
2022-09-22T04:20:48.750Z,15.65
2022-09-22T04:23:17.283Z,15.65
2022-09-22T04:25:43.994Z,15.68
2022-09-22T04:28:10.666Z,15.61
2022-09-22T04:30:37.513Z,15.63
2022-09-22T04:33:04.580Z,15.56
2022-09-22T04:35:31.598Z,15.53
2022-09-22T04:37:58.606Z,15.59
2022-09-22T04:40:25.508Z,15.61
2022-09-22T04:42:52.456Z,15.62
2022-09-22T04:45:19.317Z,15.61
2022-09-22T04:47:51.034Z,15.53
2022-09-22T04:50:19.887Z,15.58
2022-09-22T04:52:48.399Z,15.51
2022-09-22T04:55:15.589Z,15.56
2022-09-22T04:57:47.174Z,15.51
2022-09-22T05:00:14.550Z,15.53
2022-09-22T05:02:41.292Z,15.50
2022-09-22T05:05:08.407Z,15.55
2022-09-22T05:07:35.557Z,15.52
2022-09-22T05:10:02.940Z,15.49
2022-09-22T05:12:29.663Z,15.51
2022-09-22T05:14:58.100Z,15.56
2022-09-22T05:17:24.734Z,15.57
2022-09-22T05:19:52.975Z,15.54
2022-09-22T05:22:20.562Z,15.57
2022-09-22T05:24:48.789Z,15.53
2022-09-22T05:27:15.469Z,15.41
2022-09-22T05:29:42.681Z,15.46
2022-09-22T05:32:09.358Z,15.39
2022-09-22T05:34:36.140Z,15.43
2022-09-22T05:37:02.854Z,15.38
2022-09-22T05:39:29.870Z,15.44
2022-09-22T05:41:56.493Z,15.49
2022-09-22T05:44:23.630Z,15.39
2022-09-22T05:46:50.380Z,15.41
2022-09-22T05:49:16.952Z,15.51
2022-09-22T05:51:43.791Z,15.58
2022-09-22T05:54:10.550Z,15.61
2022-09-22T05:56:37.317Z,15.51
2022-09-22T05:59:04.025Z,15.56
2022-09-22T06:01:31.086Z,15.59
2022-09-22T06:03:57.939Z,15.65
2022-09-22T06:06:24.692Z,15.62
2022-09-22T06:08:51.373Z,15.52
2022-09-22T06:11:17.918Z,15.48
2022-09-22T06:13:44.608Z,15.48
2022-09-22T06:16:11.314Z,15.48
2022-09-22T06:18:37.972Z,15.48
2022-09-22T06:21:04.621Z,15.47
2022-09-22T06:23:31.997Z,15.48
2022-09-22T06:25:59.511Z,15.47
2022-09-22T06:28:26.168Z,15.45
2022-09-22T06:30:52.832Z,15.44
2022-09-22T06:33:19.886Z,15.45
2022-09-22T06:35:46.636Z,15.47
2022-09-22T06:38:15.115Z,15.47
2022-09-22T06:40:42.749Z,15.48
2022-09-22T06:43:17.160Z,15.44
2022-09-22T06:45:45.030Z,15.45
2022-09-22T06:48:12.060Z,15.51
2022-09-22T06:50:40.981Z,15.52
2022-09-22T06:53:11.715Z,15.53
2022-09-22T06:55:41.663Z,15.53
2022-09-22T06:58:09.414Z,15.52
2022-09-22T07:00:37.235Z,15.51
2022-09-22T07:03:13.418Z,15.49
2022-09-22T07:05:40.013Z,15.47
2022-09-22T07:08:08.964Z,15.49
2022-09-22T07:10:38.004Z,15.50
2022-09-22T07:13:06.459Z,15.49
2022-09-22T07:15:35.545Z,15.51
2022-09-22T07:18:03.135Z,15.49
2022-09-22T07:20:30.508Z,15.66
2022-09-22T07:23:00.716Z,15.74
2022-09-22T07:25:28.781Z,15.74
2022-09-22T07:27:58.235Z,15.75
2022-09-22T07:30:26.340Z,15.90
2022-09-22T07:32:53.250Z,15.88
2022-09-22T07:35:20.044Z,15.87
2022-09-22T07:37:46.683Z,15.86
2022-09-22T07:40:14.625Z,15.95
2022-09-22T07:42:41.496Z,16.15
2022-09-22T07:45:12.773Z,16.12
2022-09-22T07:47:58.306Z,16.20
2022-09-22T07:50:24.932Z,16.20
2022-09-22T07:52:54.851Z,16.18
2022-09-22T07:55:24.156Z,16.11
2022-09-22T07:57:58.175Z,16.10
2022-09-22T08:00:33.062Z,16.15
2022-09-22T08:03:01.295Z,16.14
2022-09-22T08:05:29.042Z,16.11
2022-09-22T08:07:58.877Z,16.06
2022-09-22T08:10:26.154Z,16.00
2022-09-22T08:12:58.171Z,15.96
2022-09-22T08:15:27.401Z,15.94
2022-09-22T08:17:58.309Z,15.89
2022-09-22T08:20:29.202Z,15.83
2022-09-22T08:23:02.972Z,15.82
2022-09-22T08:25:30.510Z,15.81
2022-09-22T08:27:57.431Z,15.82
2022-09-22T08:30:23.996Z,15.82
2022-09-22T08:32:50.622Z,15.77
2022-09-22T08:35:17.482Z,15.81
2022-09-22T08:37:44.397Z,15.82
2022-09-22T08:40:23.921Z,15.85
2022-09-22T08:42:54.462Z,16.01
2022-09-22T08:45:47.863Z,16.16
2022-09-22T08:48:57.535Z,16.30
2022-09-22T08:51:51.971Z,16.28
2022-09-22T08:54:21.794Z,16.39
2022-09-22T08:57:02.564Z,16.36
2022-09-22T08:59:44.807Z,16.42
2022-09-22T09:02:45.805Z,16.37
2022-09-22T09:05:30.329Z,16.30
2022-09-22T09:07:58.719Z,16.30
2022-09-22T09:10:38.804Z,16.39
2022-09-22T09:13:42.738Z,16.34
2022-09-22T09:16:38.121Z,16.32
2022-09-22T09:19:10.987Z,16.28
2022-09-22T09:21:40.657Z,16.20
2022-09-22T09:27:12.851Z,16.13
2022-09-22T09:30:09.208Z,16.15
2022-09-22T09:32:49.149Z,16.12
2022-09-22T09:35:52.199Z,16.11
2022-09-22T09:38:44.527Z,16.09
2022-09-22T09:41:18.214Z,16.08
2022-09-22T09:43:45.531Z,16.07
2022-09-22T09:46:30.348Z,16.04
2022-09-22T09:49:00.254Z,16.04
2022-09-22T09:51:28.930Z,16.04
2022-09-22T09:53:57.454Z,16.01
2022-09-22T09:56:27.168Z,16.04
2022-09-22T09:59:27.259Z,16.04
2022-09-22T10:01:54.826Z,16.07
2022-09-22T10:04:27.881Z,16.09
2022-09-22T10:07:15.127Z,16.05
2022-09-22T10:09:42.910Z,16.08
2022-09-22T10:12:30.410Z,16.06
2022-09-22T10:14:59.331Z,16.06
2022-09-22T10:17:30.209Z,16.06
2022-09-22T10:20:26.363Z,16.04
2022-09-22T10:22:54.761Z,16.04
2022-09-22T10:25:24.926Z,16.04
2022-09-22T10:28:13.764Z,16.03
2022-09-22T10:30:43.127Z,16.03
2022-09-22T10:33:14.473Z,16.14
2022-09-22T10:35:47.216Z,16.10
2022-09-22T10:38:27.004Z,16.07
2022-09-22T10:41:00.354Z,16.05
2022-09-22T10:43:37.236Z,16.04
2022-09-22T10:46:18.909Z,16.04
2022-09-22T10:49:00.855Z,16.06
2022-09-22T10:51:45.866Z,16.03
2022-09-22T10:54:41.872Z,16.12
2022-09-22T10:57:42.541Z,16.18
2022-09-22T11:00:16.366Z,16.15
2022-09-22T11:03:01.563Z,16.17
2022-09-22T11:06:05.434Z,16.14
2022-09-22T11:09:12.091Z,16.13
2022-09-22T11:12:13.364Z,16.13
2022-09-22T11:15:13.306Z,16.13
2022-09-22T11:18:04.421Z,16.18
2022-09-22T11:20:37.180Z,16.17
2022-09-22T11:23:25.619Z,16.21
2022-09-22T11:26:29.131Z,16.23
2022-09-22T11:29:20.926Z,16.18
2022-09-22T11:31:57.522Z,16.23
2022-09-22T11:34:26.756Z,16.28
2022-09-22T11:37:28.534Z,16.32
2022-09-22T11:40:21.972Z,16.33
2022-09-22T11:43:26.527Z,16.50
2022-09-22T11:46:30.150Z,16.39
2022-09-22T11:49:11.030Z,16.35
2022-09-22T11:52:12.742Z,16.35
2022-09-22T11:54:51.853Z,16.41
2022-09-22T11:57:23.892Z,16.36
2022-09-22T11:59:55.981Z,16.33
2022-09-22T12:02:35.484Z,16.40
2022-09-22T12:05:08.817Z,16.38
2022-09-22T12:07:45.895Z,16.41
2022-09-22T12:10:23.006Z,16.40
2022-09-22T12:12:51.802Z,16.37
2022-09-22T12:15:24.735Z,16.44
2022-09-22T12:18:13.878Z,16.45
2022-09-22T12:20:59.013Z,16.50
2022-09-22T12:23:41.429Z,16.42
2022-09-22T12:26:27.017Z,16.46
2022-09-22T12:28:54.598Z,16.46
2022-09-22T12:31:22.139Z,16.46
2022-09-22T12:33:55.940Z,16.45
2022-09-22T12:36:35.611Z,16.51
2022-09-22T12:39:20.206Z,16.57
2022-09-22T12:41:48.841Z,16.68
2022-09-22T12:44:28.742Z,16.71
2022-09-22T12:47:16.639Z,16.83
2022-09-22T12:50:02.910Z,16.82
2022-09-22T12:52:41.701Z,16.86
2022-09-22T12:55:38.116Z,16.86
2022-09-22T12:58:30.738Z,16.87
2022-09-22T13:01:38.689Z,16.91
2022-09-22T13:04:14.804Z,16.92
2022-09-22T13:06:41.353Z,16.94
2022-09-22T13:09:18.452Z,16.96
2022-09-22T13:12:13.053Z,17.10
2022-09-22T13:15:17.820Z,17.23
2022-09-22T13:17:53.988Z,17.29
2022-09-22T13:20:35.208Z,17.30
2022-09-22T13:23:12.534Z,17.35
2022-09-22T13:25:40.094Z,17.36
2022-09-22T13:28:17.023Z,17.43
2022-09-22T13:30:45.163Z,17.49
2022-09-22T13:33:25.825Z,17.51
2022-09-22T13:35:59.389Z,17.57
2022-09-22T13:38:26.453Z,17.58
2022-09-22T13:40:53.371Z,17.59
2022-09-22T13:43:33.203Z,17.65
2022-09-22T13:46:01.689Z,17.63
2022-09-22T13:48:33.690Z,17.64
2022-09-22T13:51:04.425Z,17.67
2022-09-22T13:53:32.104Z,17.71
2022-09-22T13:55:59.702Z,17.70
2022-09-22T13:58:38.765Z,17.72
2022-09-22T14:01:40.066Z,17.75
2022-09-22T14:04:21.657Z,17.86
2022-09-22T14:06:49.402Z,17.89
2022-09-22T14:09:16.284Z,17.90
2022-09-22T14:11:43.235Z,17.79
2022-09-22T14:14:24.505Z,17.73
2022-09-22T14:16:51.431Z,17.72
2022-09-22T14:19:33.967Z,17.72
2022-09-22T14:22:07.069Z,17.73
2022-09-22T14:24:37.754Z,17.78
2022-09-22T14:27:07.591Z,17.84
2022-09-22T14:29:40.781Z,17.84
2022-09-22T14:32:12.906Z,17.83
2022-09-22T14:34:40.670Z,17.85
2022-09-22T14:37:18.339Z,17.91
2022-09-22T14:39:45.195Z,17.99
2022-09-22T14:42:22.889Z,17.98
2022-09-22T14:44:51.268Z,18.03
2022-09-22T14:47:24.226Z,18.04
2022-09-22T14:50:06.789Z,18.12
2022-09-22T14:52:37.687Z,18.11
2022-09-22T14:55:35.991Z,18.06
2022-09-22T14:58:14.363Z,17.98
2022-09-22T15:01:17.781Z,17.95
2022-09-22T15:04:02.853Z,17.93
2022-09-22T15:06:39.896Z,17.90
2022-09-22T15:09:08.263Z,17.87
2022-09-22T15:11:53.206Z,17.89
2022-09-22T15:14:34.738Z,18.05
2022-09-22T15:17:21.418Z,18.00
2022-09-22T15:19:53.493Z,17.96
2022-09-22T15:22:20.148Z,17.97
2022-09-22T15:24:46.975Z,17.98
2022-09-22T15:27:17.862Z,17.97
2022-09-22T15:29:45.770Z,17.92
2022-09-22T15:32:12.949Z,17.88
2022-09-22T15:34:42.650Z,17.87
2022-09-22T15:37:25.090Z,17.88
2022-09-22T15:39:51.602Z,17.86
2022-09-22T15:42:18.336Z,17.90
2022-09-22T15:44:44.903Z,18.02
2022-09-22T15:47:17.014Z,18.03
2022-09-22T15:49:45.169Z,17.86
2022-09-22T15:52:11.807Z,17.80
2022-09-22T15:54:38.468Z,17.72
2022-09-22T15:57:05.700Z,17.73
2022-09-22T15:59:33.683Z,17.68
2022-09-22T16:02:00.662Z,17.64
2022-09-22T16:04:32.410Z,17.57
2022-09-22T16:07:04.000Z,17.56
2022-09-22T16:09:31.335Z,17.57
2022-09-22T16:11:58.027Z,17.56
2022-09-22T16:14:24.670Z,17.51
2022-09-22T16:16:52.329Z,17.48
2022-09-22T16:19:19.969Z,17.48
2022-09-22T16:21:56.731Z,17.46
2022-09-22T16:24:23.515Z,17.46
2022-09-22T16:26:51.845Z,17.46
2022-09-22T16:29:18.824Z,17.45
2022-09-22T16:31:45.600Z,17.44
2022-09-22T16:34:12.941Z,17.39
2022-09-22T16:36:41.590Z,17.39
2022-09-22T16:39:08.187Z,17.37
2022-09-22T16:41:36.100Z,17.38
2022-09-22T16:44:04.658Z,17.59
2022-09-22T16:46:38.303Z,17.76
2022-09-22T16:49:08.147Z,17.86
2022-09-22T16:51:40.922Z,17.90
2022-09-22T16:54:12.285Z,17.93
2022-09-22T16:56:39.867Z,18.02
2022-09-22T16:59:07.583Z,18.18
2022-09-22T17:01:36.916Z,18.19
2022-09-22T17:04:07.965Z,18.14
2022-09-22T17:06:36.158Z,18.20
2022-09-22T17:09:04.021Z,18.06
2022-09-22T17:11:34.502Z,18.08
2022-09-22T17:14:04.620Z,18.11
2022-09-22T17:16:34.104Z,18.07
2022-09-22T17:19:06.523Z,18.07
2022-09-22T17:21:35.620Z,18.03
2022-09-22T17:24:03.670Z,17.93
2022-09-22T17:26:33.025Z,17.75
2022-09-22T17:28:59.806Z,17.84
2022-09-22T17:31:28.086Z,17.72
2022-09-22T17:33:55.079Z,17.70
2022-09-22T17:36:24.009Z,17.65
2022-09-22T17:38:52.926Z,17.70
2022-09-22T17:41:21.903Z,17.63
2022-09-22T17:43:57.444Z,17.56
2022-09-22T17:46:29.149Z,17.54
2022-09-22T17:49:14.563Z,17.53
2022-09-22T17:52:04.591Z,17.51
2022-09-22T17:54:58.446Z,17.52
2022-09-22T17:57:28.089Z,17.56
2022-09-22T17:59:56.410Z,17.48
2022-09-22T18:02:25.317Z,17.46
2022-09-22T18:04:52.208Z,17.46
2022-09-22T18:07:21.256Z,17.46
2022-09-22T18:09:49.698Z,17.43
2022-09-22T18:12:21.737Z,17.44
2022-09-22T18:14:53.226Z,17.40
2022-09-22T18:17:22.429Z,17.40
2022-09-22T18:19:49.015Z,17.40
2022-09-22T18:22:21.203Z,17.40
2022-09-22T18:24:55.277Z,17.36
2022-09-22T18:27:25.122Z,17.36
2022-09-22T18:29:52.040Z,17.40
2022-09-22T18:32:22.184Z,17.35
2022-09-22T18:34:52.943Z,17.36
2022-09-22T18:37:20.982Z,17.36
2022-09-22T18:39:50.287Z,17.32
2022-09-22T18:42:22.710Z,17.36
2022-09-22T18:44:49.365Z,17.33
2022-09-22T18:47:18.588Z,17.34
2022-09-22T18:49:48.237Z,17.31
2022-09-22T18:52:22.904Z,17.31
2022-09-22T18:54:53.016Z,17.30
2022-09-22T18:57:21.695Z,17.43
2022-09-22T18:59:50.998Z,17.50
2022-09-22T19:02:22.335Z,17.57
2022-09-22T19:04:51.131Z,17.69
2022-09-22T19:07:41.108Z,17.71
2022-09-22T19:10:14.079Z,17.84
2022-09-22T19:12:40.807Z,17.90
2022-09-22T19:15:13.260Z,17.98
2022-09-22T19:17:44.131Z,17.93
2022-09-22T19:20:17.106Z,17.93
2022-09-22T19:22:44.862Z,18.02
2022-09-22T19:25:12.351Z,18.05
2022-09-22T19:27:40.070Z,18.05
2022-09-22T19:30:08.432Z,17.92
2022-09-22T19:32:35.437Z,17.92
2022-09-22T19:35:02.054Z,17.86
2022-09-22T19:37:29.315Z,17.91
2022-09-22T19:39:56.097Z,17.80
2022-09-22T19:42:22.860Z,17.75
2022-09-22T19:44:49.863Z,17.72
2022-09-22T19:47:16.593Z,17.68
2022-09-22T19:49:43.205Z,17.67
2022-09-22T19:52:11.137Z,17.65
2022-09-22T19:54:37.917Z,17.67
2022-09-22T19:57:04.905Z,17.62
2022-09-22T19:59:31.550Z,17.67
2022-09-22T20:01:58.417Z,17.64
2022-09-22T20:04:25.343Z,17.65
2022-09-22T20:06:52.036Z,17.75
2022-09-22T20:09:18.719Z,17.72
2022-09-22T20:11:48.380Z,17.73
2022-09-22T20:14:22.551Z,17.72
2022-09-22T20:16:55.108Z,17.63
2022-09-22T20:19:25.850Z,17.60
2022-09-22T20:22:07.665Z,17.71
2022-09-22T20:24:35.190Z,17.58
2022-09-22T20:27:02.030Z,17.55
2022-09-22T20:29:28.760Z,17.59
2022-09-22T20:31:55.523Z,17.57
2022-09-22T20:34:22.296Z,17.52
2022-09-22T20:36:48.913Z,17.50
2022-09-22T20:39:15.620Z,17.52
2022-09-22T20:41:43.241Z,17.56
2022-09-22T20:44:14.562Z,17.53
2022-09-22T20:46:47.245Z,17.44
2022-09-22T20:49:14.546Z,17.44
2022-09-22T20:51:42.205Z,17.63
2022-09-22T20:54:09.186Z,17.79
2022-09-22T20:56:39.438Z,17.83
2022-09-22T20:59:08.897Z,17.87
2022-09-22T21:01:35.697Z,17.78
2022-09-22T21:04:02.409Z,17.89
2022-09-22T21:06:30.855Z,17.87
2022-09-22T21:09:17.032Z,17.90
2022-09-22T21:11:44.128Z,17.96
2022-09-22T21:14:11.207Z,18.00
2022-09-22T21:16:39.938Z,18.02
2022-09-22T21:19:07.664Z,18.04
2022-09-22T21:21:38.655Z,18.14
2022-09-22T21:24:05.652Z,18.07
2022-09-22T21:26:33.103Z,18.08
2022-09-22T21:28:59.798Z,18.16
2022-09-22T21:31:27.421Z,18.17
2022-09-22T21:33:54.550Z,18.09
2022-09-22T21:36:25.182Z,18.11
2022-09-22T21:38:59.262Z,18.07
2022-09-22T21:41:30.571Z,18.14
2022-09-22T21:43:57.611Z,18.23
2022-09-22T21:46:29.842Z,18.08
2022-09-22T21:49:01.029Z,17.93
2022-09-22T21:51:36.242Z,17.76
2022-09-22T21:54:04.958Z,17.68
2022-09-22T21:56:33.642Z,17.65
2022-09-22T21:59:03.150Z,17.62
2022-09-22T22:01:32.441Z,17.65
2022-09-22T22:03:59.883Z,17.64
2022-09-22T22:06:29.954Z,17.63
2022-09-22T22:09:04.425Z,17.61
2022-09-22T22:11:54.688Z,17.56
2022-09-22T22:14:23.062Z,17.59
2022-09-22T22:16:52.687Z,17.58
2022-09-22T22:19:21.635Z,17.53
2022-09-22T22:21:50.900Z,17.49
2022-09-22T22:24:31.725Z,17.47
2022-09-22T22:27:06.367Z,17.41
2022-09-22T22:29:38.464Z,17.42
2022-09-22T22:32:07.202Z,17.46
2022-09-22T22:34:34.373Z,17.43
2022-09-22T22:37:01.141Z,17.37
2022-09-22T22:39:27.921Z,17.37
2022-09-22T22:41:57.233Z,17.37
2022-09-22T22:44:23.742Z,17.39
2022-09-22T22:46:50.673Z,17.38
2022-09-22T22:49:17.394Z,17.48
2022-09-22T22:51:44.311Z,17.35
2022-09-22T22:54:12.025Z,17.34
2022-09-22T22:56:42.072Z,17.36
2022-09-22T22:59:11.132Z,17.36
2022-09-22T23:01:38.546Z,17.31
2022-09-22T23:04:07.089Z,17.26
2022-09-22T23:06:39.475Z,17.22
2022-09-22T23:09:10.261Z,17.20
2022-09-22T23:11:40.071Z,17.20
2022-09-22T23:14:09.177Z,17.18
2022-09-22T23:16:43.231Z,17.19
2022-09-22T23:19:13.619Z,17.20
2022-09-22T23:21:40.626Z,17.11
2022-09-22T23:24:08.317Z,17.09
2022-09-22T23:26:35.008Z,17.06
2022-09-22T23:29:03.905Z,17.02
2022-09-22T23:31:31.626Z,17.05
2022-09-22T23:33:58.630Z,17.02
2022-09-22T23:36:28.471Z,17.01
2022-09-22T23:39:04.298Z,16.97
2022-09-22T23:41:33.110Z,16.94
2022-09-22T23:44:00.025Z,16.92
2022-09-22T23:46:26.710Z,16.91
2022-09-22T23:48:55.334Z,16.92
2022-09-22T23:51:22.145Z,16.87
2022-09-22T23:53:48.812Z,16.83
2022-09-22T23:56:15.525Z,16.86
2022-09-22T23:58:42.281Z,16.83
